createdAt,value
2018-10-17T00:00:20.229Z,87.07
2018-10-17T00:02:48.829Z,82.50
2018-10-17T00:05:17.469Z,90.17
2018-10-17T00:07:46.099Z,89.30
2018-10-17T00:10:15.926Z,83.40
2018-10-17T00:12:44.509Z,80.73
2018-10-17T00:15:13.060Z,93.07
2018-10-17T00:17:41.662Z,76.97
2018-10-17T00:20:11.139Z,90.37
2018-10-17T00:22:39.865Z,85.90
2018-10-17T00:25:08.940Z,71.93
2018-10-17T00:27:37.723Z,81.40
2018-10-17T00:30:09.639Z,84.33
2018-10-17T00:32:38.279Z,87.37
2018-10-17T00:35:07.628Z,90.73
2018-10-17T00:37:36.168Z,75.43
2018-10-17T00:40:05.023Z,74.93
2018-10-17T00:42:33.587Z,80.13
2018-10-17T00:45:02.312Z,78.03
2018-10-17T00:47:30.965Z,74.67
2018-10-17T00:49:59.550Z,80.50
2018-10-17T00:52:28.092Z,77.80
2018-10-17T00:54:56.678Z,69.30
2018-10-17T00:57:25.188Z,68.67
2018-10-17T00:59:53.763Z,66.43
2018-10-17T01:02:22.341Z,70.53
2018-10-17T01:04:50.877Z,78.70
2018-10-17T01:07:19.467Z,72.87
2018-10-17T01:09:48.004Z,74.97
2018-10-17T01:12:16.552Z,68.20
2018-10-17T01:14:45.080Z,69.53
2018-10-17T01:17:13.788Z,63.67
2018-10-17T01:19:42.259Z,70.30
2018-10-17T01:22:10.829Z,74.63
2018-10-17T01:24:39.435Z,80.20
2018-10-17T01:27:07.965Z,84.53
2018-10-17T01:29:36.653Z,85.70
2018-10-17T01:32:05.775Z,93.63
2018-10-17T01:34:34.416Z,75.33
2018-10-17T01:37:03.035Z,70.13
2018-10-17T01:39:31.556Z,75.63
2018-10-17T01:42:00.112Z,82.10
2018-10-17T01:44:28.685Z,78.07
2018-10-17T01:46:57.428Z,75.63
2018-10-17T01:49:26.033Z,77.97
2018-10-17T01:51:54.886Z,89.37
2018-10-17T01:54:23.557Z,85.17
2018-10-17T01:56:52.128Z,71.57
2018-10-17T01:59:20.749Z,84.47
2018-10-17T02:01:49.288Z,80.93
2018-10-17T02:04:17.889Z,75.37
2018-10-17T02:06:46.463Z,82.03
2018-10-17T02:09:15.176Z,73.17
2018-10-17T02:11:43.753Z,67.87
2018-10-17T02:14:12.386Z,75.77
2018-10-17T02:16:40.955Z,85.10
2018-10-17T02:19:09.547Z,80.03
2018-10-17T02:21:38.183Z,85.07
2018-10-17T02:24:07.162Z,77.20
2018-10-17T02:26:35.785Z,83.40
2018-10-17T02:29:04.390Z,85.73
2018-10-17T02:31:33.030Z,77.37
2018-10-17T02:34:01.612Z,79.00
2018-10-17T02:36:30.256Z,77.10
2018-10-17T02:38:58.808Z,82.97
2018-10-17T02:41:27.432Z,86.27
2018-10-17T02:43:56.749Z,98.83
2018-10-17T02:46:25.324Z,81.97
2018-10-17T02:48:53.911Z,81.10
2018-10-17T02:51:22.412Z,81.07
2018-10-17T02:53:51.056Z,86.73
2018-10-17T02:56:19.640Z,84.07
2018-10-17T02:58:48.221Z,83.80
2018-10-17T03:01:16.900Z,86.27
2018-10-17T03:03:45.524Z,105.53
2018-10-17T03:06:14.097Z,94.93
2018-10-17T03:08:42.673Z,125.80
2018-10-17T03:11:11.494Z,125.73
2018-10-17T03:13:39.947Z,118.97
2018-10-17T03:16:08.607Z,96.03
2018-10-17T03:18:37.246Z,125.53
2018-10-17T03:21:05.903Z,105.57
2018-10-17T03:23:34.459Z,91.20
2018-10-17T03:26:03.112Z,98.43
2018-10-17T03:28:31.709Z,120.07
2018-10-17T03:31:00.332Z,117.77
2018-10-17T03:33:28.861Z,115.07
2018-10-17T03:35:58.240Z,156.13
2018-10-17T03:38:26.773Z,156.00
2018-10-17T03:40:55.567Z,129.73
2018-10-17T03:43:24.057Z,146.50
2018-10-17T03:45:52.596Z,147.80
2018-10-17T03:48:21.160Z,143.27
2018-10-17T03:50:49.731Z,136.70
2018-10-17T03:53:18.413Z,146.17
2018-10-17T03:55:46.826Z,117.03
2018-10-17T03:58:15.395Z,121.10
2018-10-17T04:00:44.017Z,126.60
2018-10-17T04:03:12.649Z,117.57
2018-10-17T04:05:41.179Z,117.43
2018-10-17T04:08:09.741Z,102.03
2018-10-17T04:10:38.327Z,98.37
2018-10-17T04:13:06.919Z,104.00
2018-10-17T04:15:35.613Z,110.67
2018-10-17T04:18:04.160Z,110.50
2018-10-17T04:20:32.719Z,94.07
2018-10-17T04:23:01.537Z,100.67
2018-10-17T04:25:30.055Z,106.73
2018-10-17T04:27:59.114Z,90.40
2018-10-17T04:30:27.675Z,77.63
2018-10-17T04:32:56.233Z,93.07
2018-10-17T04:35:24.785Z,105.80
2018-10-17T04:37:53.416Z,97.60
2018-10-17T04:40:22.069Z,100.23
2018-10-17T04:42:50.651Z,99.63
2018-10-17T04:45:19.243Z,108.20
2018-10-17T04:47:47.922Z,116.70
2018-10-17T04:50:16.383Z,107.87
2018-10-17T04:52:44.958Z,95.20
2018-10-17T04:55:13.666Z,158.23
2018-10-17T04:57:42.216Z,99.23
2018-10-17T05:00:17.348Z,97.07
2018-10-17T05:02:45.983Z,91.67
2018-10-17T05:05:14.711Z,94.77
2018-10-17T05:07:43.293Z,103.27
2018-10-17T05:10:11.978Z,99.17
2018-10-17T05:12:40.847Z,89.70
2018-10-17T05:15:09.634Z,93.40
2018-10-17T05:17:38.188Z,92.43
2018-10-17T05:20:07.217Z,90.20
2018-10-17T05:22:35.878Z,110.37
2018-10-17T05:25:05.028Z,120.63
2018-10-17T05:27:33.672Z,121.67
2018-10-17T05:30:02.243Z,95.07
2018-10-17T05:32:30.766Z,100.30
2018-10-17T05:34:59.345Z,93.57
2018-10-17T05:37:28.015Z,94.50
2018-10-17T05:40:03.537Z,86.50
2018-10-17T05:42:32.129Z,86.90
2018-10-17T05:45:00.722Z,93.00
2018-10-17T05:47:29.288Z,89.27
2018-10-17T05:49:58.450Z,100.33
2018-10-17T05:52:27.025Z,89.07
2018-10-17T05:54:55.653Z,89.13
2018-10-17T05:57:24.164Z,90.43
2018-10-17T05:59:52.721Z,95.33
2018-10-17T06:02:24.735Z,99.30
2018-10-17T06:04:53.701Z,118.80
2018-10-17T06:07:22.335Z,85.50
2018-10-17T06:09:51.085Z,77.10
2018-10-17T06:12:19.711Z,87.83
2018-10-17T06:14:48.369Z,90.93
2018-10-17T06:17:17.032Z,90.83
2018-10-17T06:19:45.603Z,86.43
2018-10-17T06:22:14.181Z,95.13
2018-10-17T06:24:42.810Z,97.77
2018-10-17T06:27:11.886Z,96.60
2018-10-17T06:29:40.605Z,97.40
2018-10-17T06:32:09.441Z,94.83
2018-10-17T06:34:38.094Z,94.73
2018-10-17T06:37:07.324Z,80.40
2018-10-17T06:39:35.790Z,84.37
2018-10-17T06:42:04.728Z,91.47
2018-10-17T06:44:33.313Z,87.30
2018-10-17T06:47:02.005Z,90.47
2018-10-17T06:49:30.655Z,88.97
2018-10-17T06:52:00.129Z,90.33
2018-10-17T06:54:28.909Z,105.07
2018-10-17T06:56:57.569Z,101.50
2018-10-17T06:59:26.244Z,127.20
2018-10-17T07:01:54.877Z,106.13
2018-10-17T07:04:23.485Z,108.97
2018-10-17T07:06:52.123Z,175.60
2018-10-17T07:09:20.800Z,310.60
2018-10-17T07:11:49.339Z,182.37
2018-10-17T07:14:18.025Z,157.23
2018-10-17T07:16:46.604Z,138.37
2018-10-17T07:19:15.276Z,167.77
2018-10-17T07:21:43.806Z,156.87
2018-10-17T07:24:12.375Z,136.83
2018-10-17T07:26:40.939Z,146.97
2018-10-17T07:29:09.562Z,152.50
2018-10-17T07:31:38.188Z,162.37
2018-10-17T07:34:06.749Z,204.93
2018-10-17T07:36:35.323Z,201.10
2018-10-17T07:39:04.828Z,216.47
2018-10-17T07:41:33.503Z,199.77
2018-10-17T07:44:02.039Z,190.20
2018-10-17T07:46:30.629Z,166.03
2018-10-17T07:48:59.188Z,156.53
2018-10-17T07:51:27.744Z,144.93
2018-10-17T07:53:56.347Z,163.87
2018-10-17T07:56:25.010Z,130.37
2018-10-17T07:58:53.564Z,134.93
2018-10-17T08:01:22.120Z,124.03
2018-10-17T08:03:51.110Z,131.63
2018-10-17T08:06:19.840Z,122.47
2018-10-17T08:08:48.299Z,116.70
2018-10-17T08:11:16.909Z,118.93
2018-10-17T08:13:45.448Z,106.57
2018-10-17T08:16:14.113Z,108.80
2018-10-17T08:18:42.663Z,107.83
2018-10-17T08:21:11.271Z,103.07
2018-10-17T08:23:39.843Z,101.00
2018-10-17T08:26:08.435Z,99.70
2018-10-17T08:28:37.029Z,93.87
2018-10-17T08:31:05.837Z,102.57
2018-10-17T08:33:34.381Z,95.90
2018-10-17T08:36:03.217Z,94.83
2018-10-17T08:38:31.600Z,93.50
2018-10-17T08:41:00.222Z,95.67
2018-10-17T08:43:28.812Z,88.77
2018-10-17T08:45:57.433Z,87.13
2018-10-17T08:48:26.095Z,90.30
2018-10-17T08:50:54.672Z,83.10
2018-10-17T08:53:23.230Z,84.83
2018-10-17T08:55:51.870Z,83.00
2018-10-17T08:58:20.388Z,82.27
2018-10-17T09:00:49.019Z,76.83
2018-10-17T09:03:17.578Z,82.13
2018-10-17T09:05:46.195Z,74.40
2018-10-17T09:08:14.841Z,77.40
2018-10-17T09:10:43.483Z,73.77
2018-10-17T09:13:12.054Z,78.63
2018-10-17T09:15:40.596Z,78.13
2018-10-17T09:18:09.301Z,74.70
2018-10-17T09:20:38.064Z,68.27
2018-10-17T09:23:06.483Z,79.87
2018-10-17T09:25:35.159Z,74.10
2018-10-17T09:28:03.709Z,72.97
2018-10-17T09:30:32.433Z,75.70
2018-10-17T09:33:00.954Z,73.97
2018-10-17T09:35:29.580Z,68.80
2018-10-17T09:37:58.177Z,67.63
2018-10-17T09:40:27.284Z,73.00
2018-10-17T09:42:55.932Z,69.63
2018-10-17T09:45:24.472Z,68.90
2018-10-17T09:47:53.021Z,64.63
2018-10-17T09:50:21.645Z,70.10
2018-10-17T09:52:50.253Z,66.90
2018-10-17T09:55:18.840Z,64.67
2018-10-17T09:57:47.418Z,68.07
2018-10-17T10:00:21.266Z,70.03
2018-10-17T10:02:51.317Z,63.37
2018-10-17T10:05:19.891Z,61.33
2018-10-17T10:07:48.603Z,64.73
2018-10-17T10:10:17.287Z,60.73
2018-10-17T10:12:45.776Z,57.40
2018-10-17T10:15:14.340Z,61.33
2018-10-17T10:17:43.119Z,57.27
2018-10-17T10:20:11.780Z,63.07
2018-10-17T10:22:40.375Z,64.17
2018-10-17T10:25:08.994Z,62.83
2018-10-17T10:27:37.578Z,60.13
2018-10-17T10:30:06.588Z,54.67
2018-10-17T10:32:35.246Z,54.03
2018-10-17T10:35:03.862Z,59.43
2018-10-17T10:37:32.456Z,59.80
2018-10-17T10:40:01.736Z,56.23
2018-10-17T10:42:30.320Z,52.30
2018-10-17T10:44:58.922Z,54.20
2018-10-17T10:47:27.467Z,49.87
2018-10-17T10:49:56.304Z,51.37
2018-10-17T10:52:24.952Z,48.43
2018-10-17T10:54:53.500Z,49.20
2018-10-17T10:57:22.076Z,45.33
2018-10-17T10:59:50.645Z,48.03
2018-10-17T11:02:19.199Z,48.77
2018-10-17T11:04:47.977Z,44.63
2018-10-17T11:07:16.535Z,43.80
2018-10-17T11:09:45.236Z,46.77
2018-10-17T11:12:13.789Z,43.13
2018-10-17T11:14:42.517Z,44.40
2018-10-17T11:17:10.948Z,44.03
2018-10-17T11:19:39.505Z,42.83
2018-10-17T11:22:08.121Z,42.67
2018-10-17T11:24:36.685Z,44.23
2018-10-17T11:27:05.694Z,40.23
2018-10-17T11:29:34.287Z,40.43
2018-10-17T11:32:03.022Z,45.97
2018-10-17T11:34:31.496Z,45.83
2018-10-17T11:37:00.061Z,37.83
2018-10-17T11:39:28.672Z,37.58
2018-10-17T11:41:57.311Z,38.65
2018-10-17T11:44:26.296Z,40.00
2018-10-17T11:46:54.914Z,37.13
2018-10-17T11:49:23.457Z,39.53
2018-10-17T11:51:52.013Z,34.33
2018-10-17T11:54:20.698Z,37.07
2018-10-17T11:56:49.260Z,37.33
2018-10-17T11:59:18.017Z,30.08
2018-10-17T12:01:46.512Z,35.95
2018-10-17T12:04:15.228Z,32.33
2018-10-17T12:06:43.636Z,35.98
2018-10-17T12:09:12.264Z,33.30
2018-10-17T12:11:40.904Z,36.80
2018-10-17T12:14:09.420Z,36.13
2018-10-17T12:16:37.966Z,30.77
2018-10-17T12:19:06.821Z,34.73
2018-10-17T12:21:35.721Z,29.98
2018-10-17T12:24:04.320Z,33.30
2018-10-17T12:26:33.139Z,28.40
2018-10-17T12:29:01.742Z,30.70
2018-10-17T12:31:30.299Z,31.27
2018-10-17T12:33:58.893Z,31.07
2018-10-17T12:36:27.540Z,32.00
2018-10-17T12:38:56.114Z,32.67
2018-10-17T12:41:24.642Z,31.30
2018-10-17T12:43:53.441Z,32.20
2018-10-17T12:46:21.956Z,34.53
2018-10-17T12:48:50.820Z,25.37
2018-10-17T12:51:19.443Z,27.65
2018-10-17T12:53:48.356Z,29.72
2018-10-17T12:56:17.069Z,31.55
2018-10-17T12:58:45.632Z,25.20
2018-10-17T13:01:14.296Z,29.05
2018-10-17T13:03:42.823Z,26.95
2018-10-17T13:06:11.402Z,28.23
2018-10-17T13:08:40.017Z,27.22
2018-10-17T13:11:08.668Z,28.32
2018-10-17T13:13:37.183Z,28.65
2018-10-17T13:16:05.757Z,28.35
2018-10-17T13:18:34.326Z,25.32
2018-10-17T13:21:02.914Z,25.08
2018-10-17T13:23:31.539Z,23.42
2018-10-17T13:26:00.936Z,22.62
2018-10-17T13:28:29.776Z,25.25
2018-10-17T13:30:58.461Z,23.55
2018-10-17T13:33:26.971Z,30.70
2018-10-17T13:35:55.505Z,30.27
2018-10-17T13:38:24.077Z,32.08
2018-10-17T13:40:52.684Z,24.63
2018-10-17T13:43:21.198Z,37.40
2018-10-17T13:45:49.752Z,26.07
2018-10-17T13:48:18.383Z,41.05
2018-10-17T13:50:46.975Z,30.62
2018-10-17T13:53:15.706Z,33.80
2018-10-17T13:55:44.297Z,40.98
2018-10-17T13:58:13.184Z,40.50
2018-10-17T14:00:41.783Z,40.50
2018-10-17T14:03:10.354Z,39.03
2018-10-17T14:05:38.993Z,40.70
2018-10-17T14:08:07.591Z,34.88
2018-10-17T14:10:36.195Z,42.78
2018-10-17T14:13:04.835Z,39.73
2018-10-17T14:15:33.421Z,42.05
2018-10-17T14:18:02.783Z,47.93
2018-10-17T14:20:31.555Z,53.75
2018-10-17T14:23:00.065Z,51.83
2018-10-17T14:25:28.770Z,50.93
2018-10-17T14:27:57.288Z,50.00
2018-10-17T14:30:25.843Z,53.23
2018-10-17T14:32:54.413Z,51.07
2018-10-17T14:35:23.171Z,51.10
2018-10-17T14:37:51.870Z,50.47
2018-10-17T14:40:20.382Z,52.27
2018-10-17T14:42:48.938Z,51.03
2018-10-17T14:45:17.653Z,53.27
2018-10-17T14:47:46.236Z,52.83
2018-10-17T14:50:14.814Z,49.67
2018-10-17T14:52:43.382Z,48.00
2018-10-17T14:55:11.970Z,48.80
2018-10-17T14:57:40.544Z,48.67
2018-10-17T15:00:12.603Z,48.57
2018-10-17T15:02:41.227Z,50.40
2018-10-17T15:05:10.348Z,50.33
2018-10-17T15:07:39.495Z,52.60
2018-10-17T15:10:08.130Z,48.80
2018-10-17T15:12:37.082Z,47.07
2018-10-17T15:15:06.469Z,46.93
2018-10-17T15:17:35.057Z,48.43
2018-10-17T15:20:04.244Z,45.30
2018-10-17T15:22:32.878Z,44.90
2018-10-17T15:25:01.537Z,57.90
2018-10-17T15:27:30.238Z,55.33
2018-10-17T15:29:58.871Z,50.20
2018-10-17T15:32:27.463Z,49.10
2018-10-17T15:34:56.161Z,52.50
2018-10-17T15:37:24.744Z,46.93
2018-10-17T15:39:53.511Z,48.03
2018-10-17T15:42:22.053Z,46.23
2018-10-17T15:44:50.836Z,53.40
2018-10-17T15:47:19.412Z,52.13
2018-10-17T15:49:48.000Z,45.90
2018-10-17T15:52:16.605Z,47.23
2018-10-17T15:54:45.147Z,54.40
2018-10-17T15:57:13.785Z,51.67
2018-10-17T15:59:42.347Z,43.27
2018-10-17T16:02:10.996Z,46.60
2018-10-17T16:04:39.613Z,50.13
2018-10-17T16:07:08.224Z,44.63
2018-10-17T16:09:36.787Z,54.13
2018-10-17T16:12:05.513Z,48.43
2018-10-17T16:14:34.140Z,48.53
2018-10-17T16:17:02.769Z,45.00
2018-10-17T16:19:31.297Z,41.37
2018-10-17T16:21:59.883Z,47.00
2018-10-17T16:24:28.549Z,46.13
2018-10-17T16:26:57.127Z,47.87
2018-10-17T16:29:25.761Z,52.33
2018-10-17T16:31:54.360Z,51.83
2018-10-17T16:34:22.935Z,46.03
2018-10-17T16:36:51.550Z,50.60
2018-10-17T16:39:20.120Z,49.47
2018-10-17T16:41:48.743Z,52.83
2018-10-17T16:44:17.482Z,53.33
2018-10-17T16:46:45.999Z,48.17
2018-10-17T16:49:14.675Z,49.10
2018-10-17T16:51:43.275Z,49.47
2018-10-17T16:54:11.982Z,47.47
2018-10-17T16:56:40.481Z,55.73
2018-10-17T16:59:09.025Z,47.20
2018-10-17T17:01:38.696Z,52.83
2018-10-17T17:04:07.248Z,49.50
2018-10-17T17:06:36.108Z,50.30
2018-10-17T17:09:07.341Z,47.67
2018-10-17T17:11:35.990Z,50.23
2018-10-17T17:14:04.718Z,46.47
2018-10-17T17:16:33.325Z,51.10
2018-10-17T17:19:01.903Z,50.57
2018-10-17T17:21:30.450Z,49.83
2018-10-17T17:23:59.124Z,49.60
2018-10-17T17:26:27.788Z,49.67
2018-10-17T17:28:56.374Z,63.33
2018-10-17T17:31:24.977Z,51.80
2018-10-17T17:33:53.515Z,49.90
2018-10-17T17:36:22.268Z,53.53
2018-10-17T17:38:50.813Z,54.73
2018-10-17T17:41:19.436Z,52.90
2018-10-17T17:43:48.020Z,50.03
2018-10-17T17:46:16.617Z,52.60
2018-10-17T17:48:46.139Z,54.47
2018-10-17T17:51:14.817Z,56.77
2018-10-17T17:53:43.453Z,55.97
2018-10-17T17:56:12.065Z,57.07
2018-10-17T17:58:40.670Z,52.70
2018-10-17T18:01:09.279Z,58.23
2018-10-17T18:03:37.850Z,55.73
2018-10-17T18:06:06.402Z,57.23
2018-10-17T18:08:34.958Z,55.97
2018-10-17T18:11:14.923Z,59.77
2018-10-17T18:13:43.761Z,64.37
2018-10-17T18:16:12.542Z,59.27
2018-10-17T18:18:41.228Z,57.27
2018-10-17T18:21:09.796Z,57.50
2018-10-17T18:23:38.347Z,57.77
2018-10-17T18:26:06.996Z,55.13
2018-10-17T18:28:35.572Z,55.27
2018-10-17T18:31:04.196Z,51.70
2018-10-17T18:33:32.773Z,53.67
2018-10-17T18:36:02.837Z,50.73
2018-10-17T18:38:31.728Z,56.40
2018-10-17T18:41:00.335Z,50.87
2018-10-17T18:43:29.021Z,53.57
2018-10-17T18:45:57.608Z,50.80
2018-10-17T18:48:26.664Z,49.40
2018-10-17T18:50:55.303Z,59.23
2018-10-17T18:53:24.079Z,56.73
2018-10-17T18:55:52.935Z,50.57
2018-10-17T18:58:21.503Z,54.03
2018-10-17T19:00:50.074Z,51.07
2018-10-17T19:03:18.633Z,60.27
2018-10-17T19:05:47.205Z,52.73
2018-10-17T19:08:15.881Z,51.30
2018-10-17T19:10:44.492Z,52.73
2018-10-17T19:13:13.035Z,51.63
2018-10-17T19:15:41.621Z,52.73
2018-10-17T19:18:10.197Z,53.63
2018-10-17T19:20:38.756Z,54.30
2018-10-17T19:23:07.316Z,50.97
2018-10-17T19:25:35.886Z,52.23
2018-10-17T19:28:04.931Z,53.67
2018-10-17T19:30:33.476Z,58.63
2018-10-17T19:33:02.113Z,53.17
2018-10-17T19:35:30.692Z,55.43
2018-10-17T19:37:59.266Z,60.70
2018-10-17T19:40:27.813Z,56.77
2018-10-17T19:42:56.347Z,52.23
2018-10-17T19:45:24.915Z,52.50
2018-10-17T19:47:53.682Z,52.87
2018-10-17T19:50:22.280Z,60.97
2018-10-17T19:52:50.904Z,54.70
2018-10-17T19:55:19.443Z,54.90
2018-10-17T19:57:48.030Z,56.33
2018-10-17T20:00:16.710Z,54.37
2018-10-17T20:02:45.269Z,53.23
2018-10-17T20:05:13.922Z,55.83
2018-10-17T20:07:42.539Z,55.10
2018-10-17T20:10:11.100Z,51.80
2018-10-17T20:12:39.648Z,48.77
2018-10-17T20:15:08.511Z,59.53
2018-10-17T20:17:37.066Z,52.30
2018-10-17T20:20:06.627Z,58.93
2018-10-17T20:22:35.187Z,54.07
2018-10-17T20:25:03.938Z,52.00
2018-10-17T20:27:32.407Z,49.73
2018-10-17T20:30:00.982Z,53.30
2018-10-17T20:32:29.691Z,51.80
2018-10-17T20:34:58.307Z,53.47
2018-10-17T20:37:26.817Z,46.93
2018-10-17T20:39:55.643Z,54.17
2018-10-17T20:42:24.308Z,46.47
2018-10-17T20:44:52.848Z,49.87
2018-10-17T20:47:21.577Z,51.93
2018-10-17T20:49:50.128Z,56.03
2018-10-17T20:52:18.757Z,54.60
2018-10-17T20:54:47.292Z,57.03
2018-10-17T20:57:15.915Z,54.00
2018-10-17T20:59:44.576Z,57.27
2018-10-17T21:02:13.369Z,51.17
2018-10-17T21:04:41.919Z,51.07
2018-10-17T21:07:10.509Z,50.93
2018-10-17T21:09:39.089Z,52.83
2018-10-17T21:12:07.630Z,59.40
2018-10-17T21:14:39.137Z,51.50
2018-10-17T21:17:07.698Z,54.90
2018-10-17T21:19:36.249Z,53.77
2018-10-17T21:22:05.269Z,54.57
2018-10-17T21:24:34.055Z,54.13
2018-10-17T21:27:02.698Z,51.50
2018-10-17T21:29:31.192Z,51.20
2018-10-17T21:31:59.898Z,52.17
2018-10-17T21:34:28.457Z,51.97
2018-10-17T21:36:57.299Z,59.90
2018-10-17T21:39:25.982Z,68.40
2018-10-17T21:41:54.560Z,65.57
2018-10-17T21:44:23.098Z,71.90
2018-10-17T21:46:51.664Z,77.47
2018-10-17T21:49:20.275Z,78.73
2018-10-17T21:51:48.841Z,72.13
2018-10-17T21:54:17.415Z,75.47
2018-10-17T21:56:46.665Z,75.20
2018-10-17T21:59:15.229Z,79.97
2018-10-17T22:01:43.812Z,81.97
2018-10-17T22:04:12.380Z,79.03
2018-10-17T22:06:41.062Z,79.37
2018-10-17T22:09:10.557Z,75.63
2018-10-17T22:11:39.159Z,77.13
2018-10-17T22:14:08.165Z,78.80
2018-10-17T22:16:42.135Z,81.57
2018-10-17T22:19:10.906Z,71.27
2018-10-17T22:21:39.499Z,71.87
2018-10-17T22:24:08.029Z,76.87
2018-10-17T22:26:36.757Z,73.83
2018-10-17T22:29:05.547Z,78.83
2018-10-17T22:31:34.098Z,75.47
2018-10-17T22:34:02.687Z,65.03
2018-10-17T22:36:31.420Z,68.23
2018-10-17T22:38:59.984Z,74.73
2018-10-17T22:41:28.544Z,70.97
2018-10-17T22:43:57.106Z,74.47
2018-10-17T22:46:25.677Z,74.07
2018-10-17T22:48:54.219Z,81.17
2018-10-17T22:51:22.821Z,80.20
2018-10-17T22:53:51.423Z,69.97
2018-10-17T22:56:19.983Z,75.60
2018-10-17T22:58:48.546Z,81.37
2018-10-17T23:01:17.096Z,77.47
2018-10-17T23:03:45.627Z,70.97
2018-10-17T23:06:14.419Z,72.23
2018-10-17T23:08:42.999Z,85.20
2018-10-17T23:11:11.571Z,82.00
2018-10-17T23:13:40.305Z,83.83
2018-10-17T23:16:09.010Z,87.07
2018-10-17T23:18:37.578Z,88.13
2018-10-17T23:21:06.252Z,85.60
2018-10-17T23:23:34.808Z,81.50
2018-10-17T23:26:04.143Z,78.57
2018-10-17T23:28:32.671Z,88.10
2018-10-17T23:31:01.196Z,91.53
2018-10-17T23:33:32.752Z,97.70
2018-10-17T23:36:01.324Z,91.13
2018-10-17T23:38:29.927Z,90.17
2018-10-17T23:40:58.479Z,93.93
2018-10-17T23:43:27.013Z,87.60
2018-10-17T23:45:55.556Z,93.97
2018-10-17T23:48:24.169Z,99.90
2018-10-17T23:50:52.746Z,96.83
2018-10-17T23:53:21.279Z,96.93
2018-10-17T23:55:49.895Z,97.20
2018-10-17T23:58:18.465Z,90.73
